Time;durP1;ratioP1;P1;durP2;ratioP2;P2;SDS_P1;SDS_P2;PMS_P1;PMS_P2;Temp;Humidity;BMP_temperature;BMP_pressure;BME280_temperature;BME280_humidity;BME280_pressure;Samples;Min_cycle;Max_cycle;Signal;HPM_P1;HPM_P2
2022/03/31 00:00:39;;;;;;;0.40;0.40;;;4.00;99.90;;;;;;4983005;28;21461;-72
2022/03/31 00:03:07;;;;;;;1.20;1.10;;;4.00;99.90;;;;;;4993313;28;20401;-72
2022/03/31 00:05:33;;;;;;;0.70;0.55;;;4.10;99.90;;;;;;5025557;28;20049;-72
2022/03/31 00:08:04;;;;;;;0.80;0.80;;;4.10;99.90;;;;;;4990400;28;20046;-72
2022/03/31 00:10:39;;;;;;;0.63;0.63;;;4.10;99.90;;;;;;5008239;28;20041;-73
2022/03/31 00:13:15;;;;;;;0.70;0.70;;;4.00;99.90;;;;;;5021470;28;20040;-72
2022/03/31 00:15:41;;;;;;;5.03;1.73;;;3.90;99.90;;;;;;5025151;28;20477;-72
2022/03/31 00:18:08;;;;;;;0.50;0.50;;;3.90;99.90;;;;;;5022785;28;20553;-72
2022/03/31 00:34:02;;;;;;;0.60;0.60;;;3.80;99.90;;;;;;5018790;28;20041;-72
2022/03/31 00:36:28;;;;;;;1.00;0.90;;;3.70;99.90;;;;;;5008517;28;20441;-72
2022/03/31 00:41:39;;;;;;;0.80;0.80;;;3.60;99.90;;;;;;5020589;28;20046;-72
2022/03/31 00:44:06;;;;;;;0.38;0.38;;;3.60;99.90;;;;;;5007634;28;20046;-72
2022/03/31 00:46:32;;;;;;;0.40;0.40;;;3.60;99.90;;;;;;4991778;28;20482;-72
2022/03/31 00:48:59;;;;;;;2.17;1.00;;;3.60;99.90;;;;;;4992069;28;20049;-72
2022/03/31 00:51:24;;;;;;;3.40;1.05;;;3.60;99.90;;;;;;4990480;28;20046;-72
2022/03/31 00:53:51;;;;;;;0.45;0.45;;;3.50;99.90;;;;;;4992232;28;20054;-72
2022/03/31 00:56:19;;;;;;;1.45;0.80;;;3.50;99.90;;;;;;5008284;28;20073;-72
2022/03/31 00:58:46;;;;;;;0.43;0.43;;;3.50;99.90;;;;;;5008149;28;20060;-72
2022/03/31 01:01:13;;;;;;;0.77;0.77;;;3.50;99.90;;;;;;5005636;28;20412;-72
2022/03/31 01:03:40;;;;;;;0.40;0.40;;;3.50;99.90;;;;;;5001157;28;20053;-72
2022/03/31 01:06:05;;;;;;;0.47;0.47;;;3.50;99.90;;;;;;5004612;28;20123;-72
2022/03/31 01:08:32;;;;;;;0.55;0.55;;;3.40;99.90;;;;;;4973222;28;20082;-72
2022/03/31 01:10:58;;;;;;;1.75;1.33;;;3.40;99.90;;;;;;4996065;28;20035;-72
2022/03/31 01:13:24;;;;;;;0.60;0.60;;;3.40;99.90;;;;;;4975226;28;20042;-72
2022/03/31 01:15:49;;;;;;;0.52;0.52;;;3.40;99.90;;;;;;5007415;28;20046;-72
2022/03/31 01:18:15;;;;;;;0.30;0.30;;;3.40;99.90;;;;;;5001154;28;20104;-73
2022/03/31 01:20:42;;;;;;;0.40;0.40;;;3.40;99.90;;;;;;4997828;28;20485;-72
2022/03/31 01:23:14;;;;;;;18.35;1.05;;;3.30;99.90;;;;;;4991740;28;20133;-72
2022/03/31 01:25:40;;;;;;;1.58;1.48;;;3.30;99.90;;;;;;4990727;28;20057;-72
2022/03/31 01:28:06;;;;;;;6.38;1.25;;;3.30;99.90;;;;;;4999583;28;20116;-72
2022/03/31 01:30:32;;;;;;;0.40;0.40;;;3.30;99.90;;;;;;4982603;28;20489;-72
2022/03/31 01:32:57;;;;;;;4.75;0.93;;;3.30;99.90;;;;;;4989906;28;20045;-72
2022/03/31 01:35:23;;;;;;;0.40;0.40;;;3.30;99.90;;;;;;5007794;28;20486;-72
2022/03/31 01:37:49;;;;;;;0.40;0.40;;;3.30;99.90;;;;;;5007340;28;20128;-72
2022/03/31 01:40:15;;;;;;;0.40;0.40;;;3.30;99.90;;;;;;5006634;28;20038;-72
2022/03/31 01:42:42;;;;;;;0.30;0.30;;;3.30;99.90;;;;;;5007061;28;20064;-72
2022/03/31 01:45:11;;;;;;;0.40;0.40;;;3.30;99.90;;;;;;4990995;28;20115;-72
2022/03/31 01:47:37;;;;;;;0.40;0.40;;;3.30;99.90;;;;;;4990776;28;20092;-72
2022/03/31 01:50:03;;;;;;;0.40;0.40;;;3.30;99.90;;;;;;4990666;28;20038;-72
2022/03/31 01:52:29;;;;;;;0.35;0.35;;;3.30;99.90;;;;;;5006817;28;20065;-72
2022/03/31 01:54:55;;;;;;;0.40;0.40;;;3.30;99.90;;;;;;4989499;28;20038;-72
2022/03/31 01:57:21;;;;;;;0.45;0.45;;;3.30;99.90;;;;;;4989820;28;20405;-72
2022/03/31 01:59:46;;;;;;;0.40;0.40;;;3.30;99.90;;;;;;5006694;28;20568;-72
2022/03/31 02:02:14;;;;;;;0.38;0.38;;;3.40;99.90;;;;;;4997111;28;20052;-72
2022/03/31 02:04:41;;;;;;;0.57;0.57;;;3.40;99.90;;;;;;4989881;28;20057;-72
2022/03/31 02:07:07;;;;;;;0.75;0.75;;;3.40;99.90;;;;;;4991039;28;20046;-72
2022/03/31 02:09:33;;;;;;;0.38;0.38;;;3.40;99.90;;;;;;5006333;28;20406;-72
2022/03/31 02:11:59;;;;;;;0.82;0.82;;;3.50;99.90;;;;;;5004717;28;20073;-72
2022/03/31 02:14:25;;;;;;;1.13;0.90;;;3.50;99.90;;;;;;5006256;28;20038;-71
2022/03/31 02:16:51;;;;;;;0.60;0.60;;;3.50;99.90;;;;;;4991299;28;20092;-72
2022/03/31 02:19:18;;;;;;;3.03;2.08;;;3.50;99.90;;;;;;4993101;28;20491;-72
2022/03/31 02:21:46;;;;;;;0.40;0.40;;;3.50;99.90;;;;;;5003612;28;20042;-71
2022/03/31 02:24:12;;;;;;;1.40;1.00;;;3.50;99.90;;;;;;4994247;28;20050;-72
2022/03/31 02:26:38;;;;;;;0.50;0.50;;;3.50;99.90;;;;;;4999046;28;20105;-72
2022/03/31 02:29:04;;;;;;;0.75;0.73;;;3.50;99.90;;;;;;5004829;28;20038;-72
2022/03/31 02:31:31;;;;;;;1.08;1.08;;;3.50;99.90;;;;;;5006939;28;20037;-72
2022/03/31 02:33:57;;;;;;;1.15;1.10;;;3.60;99.90;;;;;;4989983;28;20072;-72
2022/03/31 02:36:23;;;;;;;0.60;0.60;;;3.60;99.90;;;;;;5003885;28;20078;-72
2022/03/31 02:38:49;;;;;;;2.80;1.33;;;3.50;99.90;;;;;;4976892;28;20048;-72
2022/03/31 02:41:15;;;;;;;0.65;0.65;;;3.50;99.90;;;;;;4990573;28;20042;-72
2022/03/31 02:43:40;;;;;;;0.80;0.80;;;3.50;99.90;;;;;;5006368;28;20068;-72
2022/03/31 02:46:08;;;;;;;0.57;0.57;;;3.60;99.90;;;;;;4990972;28;20461;-72
2022/03/31 02:48:33;;;;;;;1.38;1.27;;;3.50;99.90;;;;;;4999603;28;20089;-72
2022/03/31 02:50:59;;;;;;;0.40;0.40;;;3.50;99.90;;;;;;4981797;28;20073;-72
2022/03/31 02:56:09;;;;;;;0.85;0.85;;;3.50;99.90;;;;;;4998572;28;20046;-72
2022/03/31 02:58:35;;;;;;;0.50;0.50;;;3.50;99.90;;;;;;4988359;28;20517;-72
2022/03/31 03:01:02;;;;;;;10.68;2.20;;;3.50;99.90;;;;;;4990513;28;20129;-72
2022/03/31 03:03:28;;;;;;;1.42;1.33;;;3.50;99.90;;;;;;5005732;28;20089;-72
2022/03/31 03:05:54;;;;;;;0.70;0.70;;;3.40;99.90;;;;;;4991440;28;20095;-72
2022/03/31 03:08:20;;;;;;;2.42;2.13;;;3.40;99.90;;;;;;5009920;28;20039;-72
2022/03/31 03:10:46;;;;;;;0.90;0.90;;;3.40;99.90;;;;;;4993530;28;20045;-72
2022/03/31 03:13:14;;;;;;;4.97;3.80;;;3.40;99.90;;;;;;4993519;28;20042;-72
2022/03/31 03:15:39;;;;;;;2.05;1.95;;;3.40;99.90;;;;;;5009757;28;20407;-72
2022/03/31 03:18:06;;;;;;;2.88;2.58;;;3.40;99.90;;;;;;4987086;28;20490;-72
2022/03/31 03:20:31;;;;;;;4.55;3.75;;;3.40;99.90;;;;;;4987167;28;20037;-72
2022/03/31 03:22:57;;;;;;;1.15;1.15;;;3.40;99.90;;;;;;5008357;28;20553;-72
2022/03/31 03:25:23;;;;;;;1.95;1.85;;;3.30;99.90;;;;;;4993439;28;20058;-72
2022/03/31 03:27:49;;;;;;;1.13;1.13;;;3.30;99.90;;;;;;5009172;28;20144;-72
2022/03/31 03:30:18;;;;;;;1.95;1.80;;;3.20;99.90;;;;;;5009156;28;20049;-72
2022/03/31 03:32:45;;;;;;;1.13;1.13;;;3.20;99.90;;;;;;4992587;28;20409;-72
2022/03/31 03:35:12;;;;;;;0.82;0.82;;;3.20;99.90;;;;;;4991812;28;20042;-72
2022/03/31 03:37:39;;;;;;;1.45;1.35;;;3.10;99.90;;;;;;4991750;28;20402;-73
2022/03/31 03:40:07;;;;;;;0.93;0.93;;;3.10;99.90;;;;;;5003259;28;20053;-72
2022/03/31 03:42:33;;;;;;;1.40;1.30;;;3.10;99.90;;;;;;5009368;28;20042;-73
2022/03/31 03:44:59;;;;;;;0.95;0.95;;;3.00;99.90;;;;;;5009224;28;20513;-73
2022/03/31 03:47:25;;;;;;;2.42;2.17;;;3.10;99.90;;;;;;4992834;28;20048;-73
2022/03/31 03:49:51;;;;;;;0.90;0.90;;;3.00;99.90;;;;;;4982615;28;20046;-73
2022/03/31 03:52:17;;;;;;;1.67;1.58;;;3.00;99.90;;;;;;4976603;28;20033;-72
2022/03/31 03:54:43;;;;;;;0.80;0.80;;;3.00;99.90;;;;;;5026077;28;20050;-72
2022/03/31 03:57:09;;;;;;;2.03;1.73;;;3.00;99.90;;;;;;4993195;28;20049;-72
2022/03/31 03:59:34;;;;;;;1.20;1.20;;;2.90;99.90;;;;;;4991947;28;20049;-72
2022/03/31 04:02:01;;;;;;;1.65;1.55;;;2.90;99.90;;;;;;5008378;28;20077;-72
2022/03/31 04:04:29;;;;;;;1.20;1.20;;;2.90;99.90;;;;;;5008788;28;20084;-71
2022/03/31 04:06:58;;;;;;;1.10;1.10;;;2.90;99.90;;;;;;5024707;28;20046;-71
2022/03/31 04:09:24;;;;;;;1.42;1.42;;;2.90;99.90;;;;;;4992493;28;20050;-72
2022/03/31 04:11:50;;;;;;;1.50;1.40;;;2.90;99.90;;;;;;5008186;28;20723;-72
2022/03/31 04:14:17;;;;;;;1.15;1.15;;;2.80;99.90;;;;;;5008644;28;20520;-72
2022/03/31 04:16:42;;;;;;;1.40;1.30;;;2.80;99.90;;;;;;5007436;28;20045;-72
2022/03/31 04:19:08;;;;;;;2.60;2.40;;;2.70;99.90;;;;;;4988116;28;20108;-72
2022/03/31 04:21:38;;;;;;;1.63;1.52;;;2.80;99.90;;;;;;5000658;28;20114;-72
2022/03/31 04:24:05;;;;;;;1.55;1.45;;;2.80;99.90;;;;;;5003712;28;20506;-72
2022/03/31 04:26:31;;;;;;;1.80;1.70;;;2.80;99.90;;;;;;5024524;28;20076;-73
2022/03/31 04:28:56;;;;;;;1.20;1.20;;;2.80;99.90;;;;;;5017424;28;20081;-73
2022/03/31 04:31:23;;;;;;;1.27;1.27;;;2.70;99.90;;;;;;5008635;28;20136;-72
2022/03/31 04:33:49;;;;;;;1.80;1.70;;;2.70;99.90;;;;;;4992031;28;20141;-72
2022/03/31 04:36:15;;;;;;;2.53;2.33;;;2.70;99.90;;;;;;5006440;28;20093;-73
2022/03/31 04:38:41;;;;;;;1.40;1.40;;;2.70;99.90;;;;;;5007259;28;20058;-72
2022/03/31 04:41:06;;;;;;;1.85;1.75;;;2.60;99.90;;;;;;4982830;28;20046;-72
2022/03/31 04:43:32;;;;;;;1.55;1.48;;;2.60;99.90;;;;;;5004139;28;21159;-72
2022/03/31 04:45:58;;;;;;;2.13;2.03;;;2.50;99.90;;;;;;4998726;28;20497;-72
2022/03/31 04:48:23;;;;;;;1.85;1.75;;;2.50;99.90;;;;;;4999281;28;20437;-72
2022/03/31 04:50:49;;;;;;;4.65;2.13;;;2.50;99.90;;;;;;4991901;28;20041;-72
2022/03/31 04:53:17;;;;;;;2.97;2.70;;;2.50;99.90;;;;;;5007769;28;20030;-72
2022/03/31 04:55:43;;;;;;;1.40;1.40;;;2.40;99.90;;;;;;5008181;28;20060;-72
2022/03/31 04:58:08;;;;;;;3.22;2.90;;;2.50;99.90;;;;;;5007430;28;20037;-72
2022/03/31 05:00:34;;;;;;;2.22;2.08;;;2.40;99.90;;;;;;5007828;28;20516;-72
2022/03/31 05:03:00;;;;;;;4.25;3.70;;;2.40;99.90;;;;;;5008165;28;20041;-72
2022/03/31 05:05:26;;;;;;;3.03;2.78;;;2.40;99.90;;;;;;4992204;28;20048;-72
2022/03/31 05:07:52;;;;;;;3.30;2.47;;;2.30;99.90;;;;;;5006236;28;20124;-72
2022/03/31 05:10:18;;;;;;;1.05;1.05;;;2.30;99.90;;;;;;4991152;28;20121;-72
2022/03/31 05:12:44;;;;;;;1.40;1.40;;;2.30;99.90;;;;;;4990615;28;20041;-72
2022/03/31 05:15:11;;;;;;;5.68;2.50;;;2.30;99.90;;;;;;4990992;28;20041;-72
2022/03/31 05:17:38;;;;;;;1.98;1.88;;;2.30;99.90;;;;;;5001618;28;20038;-72
2022/03/31 05:20:08;;;;;;;1.85;1.75;;;2.30;99.90;;;;;;5000253;28;20053;-72
2022/03/31 05:22:35;;;;;;;1.65;1.58;;;2.30;99.90;;;;;;4990287;28;20498;-72
2022/03/31 05:25:02;;;;;;;1.40;1.40;;;2.30;99.90;;;;;;4994496;28;20057;-72
2022/03/31 05:27:28;;;;;;;1.40;1.40;;;2.30;99.90;;;;;;5006847;28;20073;-73
2022/03/31 05:29:53;;;;;;;1.83;1.73;;;2.30;99.90;;;;;;4996098;28;20052;-73
2022/03/31 05:32:19;;;;;;;1.08;1.08;;;2.30;99.90;;;;;;5022990;28;20041;-71
2022/03/31 05:34:44;;;;;;;1.30;1.30;;;2.30;99.90;;;;;;5007958;28;20076;-73
2022/03/31 05:37:10;;;;;;;9.98;2.20;;;2.30;99.90;;;;;;4985933;28;20054;-73
2022/03/31 05:39:36;;;;;;;3.05;2.78;;;2.30;99.90;;;;;;4983808;28;20049;-73
2022/03/31 05:42:02;;;;;;;1.15;1.15;;;2.40;99.90;;;;;;5005725;28;20109;-73
2022/03/31 05:44:28;;;;;;;1.88;1.77;;;2.40;99.90;;;;;;5007631;28;20429;-71
2022/03/31 05:46:54;;;;;;;1.15;1.15;;;2.50;99.90;;;;;;4989987;28;20104;-72
2022/03/31 05:49:20;;;;;;;2.30;2.15;;;2.50;99.90;;;;;;4980353;28;20398;-72
2022/03/31 05:51:45;;;;;;;2.13;2.00;;;2.50;99.90;;;;;;5008131;28;20049;-73
2022/03/31 05:54:11;;;;;;;1.92;1.83;;;2.60;99.90;;;;;;4989571;28;20048;-72
2022/03/31 05:56:37;;;;;;;2.28;2.17;;;2.60;99.90;;;;;;5006705;28;20379;-71
2022/03/31 05:59:04;;;;;;;1.30;1.30;;;2.70;99.90;;;;;;5005257;28;20085;-71
2022/03/31 06:01:30;;;;;;;2.40;2.10;;;2.70;99.90;;;;;;4990028;28;20088;-72
2022/03/31 06:03:55;;;;;;;3.47;3.00;;;2.80;99.90;;;;;;4989646;28;20078;-72
2022/03/31 06:06:23;;;;;;;2.30;2.10;;;2.80;99.90;;;;;;5019584;28;20057;-72
2022/03/31 06:08:49;;;;;;;2.13;1.98;;;2.90;99.90;;;;;;4985282;28;20088;-73
2022/03/31 06:11:14;;;;;;;1.45;1.45;;;2.90;99.90;;;;;;4990762;28;20116;-73
2022/03/31 06:13:40;;;;;;;1.77;1.67;;;2.90;99.90;;;;;;5002722;28;20049;-72
2022/03/31 06:16:06;;;;;;;2.90;2.70;;;2.90;99.90;;;;;;4989602;28;20498;-71
2022/03/31 06:18:31;;;;;;;2.65;2.45;;;2.90;99.90;;;;;;4997441;28;20042;-72
2022/03/31 06:20:57;;;;;;;1.73;1.65;;;2.90;99.90;;;;;;5010401;28;20156;-72
2022/03/31 06:23:23;;;;;;;2.92;2.60;;;2.90;99.90;;;;;;5005551;28;20064;-72
2022/03/31 06:25:50;;;;;;;2.25;2.03;;;2.90;99.90;;;;;;4990126;28;20070;-73
2022/03/31 06:28:16;;;;;;;3.47;2.38;;;3.00;99.90;;;;;;5006429;28;20052;-73
2022/03/31 06:30:41;;;;;;;2.33;2.13;;;3.00;99.90;;;;;;5006680;28;20128;-73
2022/03/31 06:33:08;;;;;;;2.55;2.33;;;3.00;99.90;;;;;;5007157;28;20042;-72
2022/03/31 06:35:34;;;;;;;2.13;2.00;;;3.00;99.90;;;;;;5005471;28;20038;-72
2022/03/31 06:38:01;;;;;;;4.57;3.25;;;3.00;99.90;;;;;;5006812;28;20045;-73
2022/03/31 06:40:27;;;;;;;3.00;2.78;;;3.10;99.90;;;;;;5005534;28;20367;-72
2022/03/31 06:42:53;;;;;;;4.10;3.05;;;3.00;99.90;;;;;;5013735;28;20101;-72
2022/03/31 06:45:19;;;;;;;2.63;2.40;;;3.00;99.90;;;;;;4989375;28;20050;-73
2022/03/31 06:47:45;;;;;;;2.78;2.58;;;3.00;99.90;;;;;;4994321;28;20454;-72
2022/03/31 06:50:12;;;;;;;3.30;3.00;;;3.10;99.90;;;;;;5009464;28;20037;-72
2022/03/31 06:52:37;;;;;;;3.10;2.75;;;3.00;99.90;;;;;;4990371;28;20047;-72
2022/03/31 06:55:04;;;;;;;3.83;2.90;;;3.10;99.90;;;;;;4994017;28;20041;-73
2022/03/31 06:57:30;;;;;;;4.75;3.20;;;3.10;99.90;;;;;;4993411;28;20034;-72
2022/03/31 06:59:55;;;;;;;3.80;3.40;;;3.10;99.90;;;;;;5009941;28;20084;-73
2022/03/31 07:02:21;;;;;;;3.20;3.00;;;3.10;99.90;;;;;;4983730;28;20042;-72
2022/03/31 07:04:46;;;;;;;3.33;2.92;;;3.10;99.90;;;;;;5012417;28;20049;-72
2022/03/31 07:07:12;;;;;;;3.85;3.45;;;3.10;99.90;;;;;;5007196;28;20497;-72
2022/03/31 07:09:38;;;;;;;3.20;2.95;;;3.10;99.90;;;;;;4989093;28;20039;-72
2022/03/31 07:12:04;;;;;;;2.92;2.65;;;3.10;99.90;;;;;;5009235;28;20034;-72
2022/03/31 07:14:33;;;;;;;2.78;2.38;;;3.10;99.90;;;;;;5009088;28;20034;-72
2022/03/31 07:16:59;;;;;;;4.00;3.70;;;3.00;99.90;;;;;;5010253;28;20141;-72
2022/03/31 07:19:24;;;;;;;3.83;2.95;;;3.00;99.90;;;;;;5005721;28;20124;-72
2022/03/31 07:21:51;;;;;;;4.85;4.35;;;3.00;99.90;;;;;;5005205;28;20068;-71
2022/03/31 07:24:17;;;;;;;4.47;3.83;;;3.10;99.90;;;;;;4993571;28;20513;-72
2022/03/31 07:26:43;;;;;;;5.30;4.43;;;3.20;99.90;;;;;;5001334;28;20048;-72
2022/03/31 07:29:09;;;;;;;4.10;3.63;;;3.10;99.90;;;;;;4997869;28;20050;-73
2022/03/31 07:31:34;;;;;;;2.33;2.13;;;3.10;99.90;;;;;;5012132;28;20034;-73
2022/03/31 07:34:00;;;;;;;5.50;3.47;;;3.10;99.90;;;;;;4992675;28;20038;-73
2022/03/31 07:36:26;;;;;;;3.72;3.38;;;3.10;99.90;;;;;;5012473;28;20056;-73
2022/03/31 07:38:52;;;;;;;4.15;3.28;;;3.20;99.90;;;;;;4983397;28;20494;-73
2022/03/31 07:41:18;;;;;;;4.07;3.42;;;3.10;99.90;;;;;;5012496;28;20103;-72
2022/03/31 07:43:44;;;;;;;6.80;4.43;;;3.20;99.90;;;;;;5002881;28;20042;-72
2022/03/31 07:46:10;;;;;;;3.65;3.35;;;3.20;99.90;;;;;;5007265;28;20044;-71
2022/03/31 07:48:36;;;;;;;4.35;3.75;;;3.20;99.90;;;;;;5006631;28;20115;-72
2022/03/31 07:51:02;;;;;;;5.10;4.35;;;3.20;99.90;;;;;;5030161;28;20153;-72
2022/03/31 07:53:33;;;;;;;4.63;3.67;;;3.20;99.90;;;;;;4994537;28;20567;-71
2022/03/31 07:56:08;;;;;;;3.03;2.53;;;3.20;99.90;;;;;;4996026;28;20414;-71
2022/03/31 07:58:34;;;;;;;5.93;3.85;;;3.10;99.90;;;;;;5012020;28;20489;-70
2022/03/31 08:00:59;;;;;;;3.83;3.20;;;3.20;99.90;;;;;;5011981;28;20056;-72
2022/03/31 08:03:25;;;;;;;4.30;3.90;;;3.20;99.90;;;;;;5010943;28;20098;-71
2022/03/31 08:05:51;;;;;;;3.65;3.25;;;3.20;99.90;;;;;;4995303;28;20056;-72
2022/03/31 08:08:18;;;;;;;4.40;4.00;;;3.30;99.90;;;;;;5011140;28;20478;-71
2022/03/31 08:10:44;;;;;;;5.15;4.18;;;3.30;99.90;;;;;;5011108;28;20120;-72
2022/03/31 08:13:10;;;;;;;5.18;4.22;;;3.30;99.90;;;;;;4996866;28;20163;-72
2022/03/31 08:15:37;;;;;;;4.57;3.78;;;3.30;99.90;;;;;;4997458;28;20046;-72
2022/03/31 08:18:03;;;;;;;5.07;4.45;;;3.30;99.90;;;;;;4998037;28;20508;-72
2022/03/31 08:20:29;;;;;;;4.20;3.80;;;3.40;99.90;;;;;;4995965;28;20045;-71
2022/03/31 08:22:55;;;;;;;3.55;2.92;;;3.40;99.90;;;;;;5012302;28;20041;-71
2022/03/31 08:25:21;;;;;;;5.50;3.75;;;3.40;99.90;;;;;;5012312;28;20083;-72
2022/03/31 08:27:47;;;;;;;5.35;4.28;;;3.30;99.90;;;;;;4996311;28;20128;-72
2022/03/31 08:30:17;;;;;;;3.17;2.83;;;3.20;99.90;;;;;;4995977;28;20045;-72
2022/03/31 08:32:46;;;;;;;2.55;2.35;;;3.20;99.90;;;;;;5011680;28;20056;-72
2022/03/31 08:35:13;;;;;;;6.32;4.95;;;3.10;99.90;;;;;;4995998;28;20415;-72
2022/03/31 08:37:39;;;;;;;2.03;1.92;;;3.10;99.90;;;;;;5011817;28;20041;-72
2022/03/31 08:40:06;;;;;;;3.38;3.08;;;3.10;99.90;;;;;;4995403;28;20125;-72
2022/03/31 08:42:32;;;;;;;5.47;4.68;;;3.10;99.90;;;;;;5002062;28;20042;-72
2022/03/31 08:44:59;;;;;;;5.47;4.47;;;3.00;99.90;;;;;;4992713;28;20638;-71
2022/03/31 08:47:27;;;;;;;3.42;3.13;;;3.00;99.90;;;;;;4995459;28;20042;-71
2022/03/31 08:49:55;;;;;;;6.65;5.18;;;3.00;99.90;;;;;;4992076;28;20046;-71
2022/03/31 08:52:21;;;;;;;4.82;3.63;;;3.10;99.90;;;;;;5011537;28;20484;-73
2022/03/31 08:54:47;;;;;;;3.58;3.28;;;3.10;99.90;;;;;;5008371;28;20049;-71
2022/03/31 08:57:13;;;;;;;5.32;4.22;;;3.00;99.90;;;;;;4981826;28;20409;-71
2022/03/31 08:59:39;;;;;;;4.55;3.60;;;2.90;99.90;;;;;;5011463;28;20045;-70
2022/03/31 09:02:05;;;;;;;3.55;3.20;;;2.80;99.90;;;;;;5008559;28;20203;-71
2022/03/31 09:04:30;;;;;;;4.57;3.70;;;2.80;99.90;;;;;;4992081;28;20045;-71
2022/03/31 09:07:07;;;;;;;3.42;2.92;;;2.70;99.90;;;;;;5005430;28;20409;-71
2022/03/31 09:09:46;;;;;;;6.22;5.20;;;2.70;99.90;;;;;;5011131;28;20042;-71
2022/03/31 09:12:12;;;;;;;6.15;3.42;;;2.70;99.90;;;;;;5011026;28;20075;-71
2022/03/31 09:14:38;;;;;;;6.25;4.50;;;2.60;99.90;;;;;;5011407;28;20069;-71
2022/03/31 09:17:14;;;;;;;2.88;2.67;;;2.60;99.90;;;;;;5011359;28;20052;-70
2022/03/31 09:19:41;;;;;;;5.43;4.13;;;2.60;99.90;;;;;;5024275;28;20073;-71
2022/03/31 09:22:07;;;;;;;3.22;2.97;;;2.60;99.90;;;;;;5000266;28;20033;-72
2022/03/31 09:24:33;;;;;;;4.82;3.55;;;2.60;99.90;;;;;;5010968;28;20107;-71
2022/03/31 09:27:00;;;;;;;5.60;4.43;;;2.60;99.90;;;;;;4994620;28;20570;-71
2022/03/31 09:29:28;;;;;;;8.65;4.60;;;2.60;99.90;;;;;;4994711;28;20099;-71
2022/03/31 09:32:14;;;;;;;10.32;5.78;;;2.50;99.90;;;;;;5000984;28;20075;-71
2022/03/31 09:34:48;;;;;;;8.52;6.35;;;2.40;99.90;;;;;;4994693;28;20559;-71
2022/03/31 09:37:15;;;;;;;6.10;4.68;;;2.40;99.90;;;;;;4994368;28;20129;-71
2022/03/31 09:39:41;;;;;;;5.05;3.67;;;2.30;99.90;;;;;;5011026;28;20361;-71
2022/03/31 09:42:17;;;;;;;6.93;4.18;;;2.20;99.90;;;;;;5011140;28;20101;-71
2022/03/31 09:44:42;;;;;;;4.32;3.80;;;2.10;99.90;;;;;;5011229;28;20409;-71
2022/03/31 09:47:09;;;;;;;7.53;5.65;;;1.90;99.90;;;;;;5011409;28;20444;-70
2022/03/31 09:49:35;;;;;;;5.75;4.25;;;1.90;99.90;;;;;;5010825;28;20042;-71
2022/03/31 09:52:03;;;;;;;5.78;3.50;;;1.80;99.90;;;;;;4980956;28;20036;-71
2022/03/31 09:54:32;;;;;;;4.85;4.20;;;1.70;99.90;;;;;;4975259;28;20136;-71
2022/03/31 09:57:00;;;;;;;4.70;4.22;;;1.60;99.90;;;;;;4991434;28;20100;-71
2022/03/31 09:59:34;;;;;;;2.70;2.50;;;1.50;99.90;;;;;;4991747;28;20409;-71
2022/03/31 10:02:00;;;;;;;1.63;1.55;;;1.40;99.90;;;;;;4990314;28;20053;-71
2022/03/31 10:04:27;;;;;;;4.05;3.33;;;1.40;99.90;;;;;;4991055;28;20053;-72
2022/03/31 10:06:53;;;;;;;3.03;2.75;;;1.30;99.90;;;;;;5021762;28;20084;-71
2022/03/31 10:09:19;;;;;;;2.17;2.00;;;1.30;99.90;;;;;;5025340;28;20513;-72
2022/03/31 10:11:48;;;;;;;2.47;2.30;;;1.30;99.90;;;;;;5009544;28;20393;-72
2022/03/31 10:14:33;;;;;;;5.07;3.25;;;1.30;99.90;;;;;;5009111;28;20053;-71
2022/03/31 10:17:08;;;;;;;4.47;3.30;;;1.30;99.90;;;;;;5013068;28;20044;-72
2022/03/31 10:19:39;;;;;;;3.40;2.80;;;1.30;99.90;;;;;;5007802;28;20448;-73
2022/03/31 10:25:09;;;;;;;4.70;3.35;;;1.20;99.90;;;;;;5026254;28;20054;-72
2022/03/31 10:27:40;;;;;;;3.53;3.22;;;1.30;99.90;;;;;;5011634;28;20077;-72
2022/03/31 10:30:09;;;;;;;3.90;3.35;;;1.30;99.90;;;;;;5009121;28;20052;-73
2022/03/31 10:32:35;;;;;;;3.50;3.20;;;1.30;99.90;;;;;;4996281;28;20379;-72
2022/03/31 10:35:01;;;;;;;4.18;3.78;;;1.30;99.90;;;;;;5010343;28;20044;-73
2022/03/31 10:37:37;;;;;;;3.88;3.20;;;1.30;99.90;;;;;;5009002;28;20543;-73
2022/03/31 10:40:10;;;;;;;5.03;3.60;;;1.30;99.90;;;;;;4995927;28;20033;-73
2022/03/31 10:42:37;;;;;;;5.85;3.88;;;1.30;99.90;;;;;;4990690;28;20425;-73
2022/03/31 10:45:05;;;;;;;3.08;2.72;;;1.30;99.90;;;;;;5009332;28;20052;-72
2022/03/31 10:47:32;;;;;;;3.42;3.13;;;1.30;99.90;;;;;;4989591;28;20045;-72
2022/03/31 10:49:58;;;;;;;2.70;2.50;;;1.30;99.90;;;;;;5010557;28;20080;-72
2022/03/31 10:52:24;;;;;;;3.40;2.45;;;1.30;99.90;;;;;;5010693;28;20064;-72
2022/03/31 10:54:51;;;;;;;2.88;2.63;;;1.30;99.90;;;;;;5026642;28;20046;-72
2022/03/31 10:57:18;;;;;;;4.32;3.38;;;1.30;99.90;;;;;;4992605;28;20057;-70
2022/03/31 10:59:47;;;;;;;3.08;2.78;;;1.40;99.90;;;;;;4990573;28;20053;-71
2022/03/31 11:02:15;;;;;;;2.78;2.58;;;1.30;99.90;;;;;;4996273;28;20058;-71
2022/03/31 11:04:45;;;;;;;3.35;2.95;;;1.40;99.90;;;;;;5003381;28;20444;-71
2022/03/31 11:07:20;;;;;;;3.90;3.20;;;1.40;99.90;;;;;;5007706;28;20402;-71
2022/03/31 11:09:47;;;;;;;5.28;4.07;;;1.40;99.90;;;;;;5003299;28;20050;-72
2022/03/31 11:12:28;;;;;;;4.32;2.85;;;1.40;99.90;;;;;;5005047;28;20125;-72
2022/03/31 11:15:07;;;;;;;3.58;3.05;;;1.40;99.90;;;;;;4998445;28;20041;-72
2022/03/31 11:17:33;;;;;;;3.45;2.88;;;1.40;99.90;;;;;;4999137;28;20460;-72
2022/03/31 11:20:03;;;;;;;3.22;2.92;;;1.40;99.90;;;;;;4990122;28;20049;-72
2022/03/31 11:22:30;;;;;;;3.65;3.20;;;1.40;99.90;;;;;;5011675;28;20401;-73
2022/03/31 11:25:11;;;;;;;3.13;2.88;;;1.40;99.90;;;;;;5007973;28;20567;-73
2022/03/31 11:27:39;;;;;;;3.78;2.88;;;1.30;99.90;;;;;;5022950;28;20053;-74
2022/03/31 11:30:07;;;;;;;4.18;2.95;;;1.40;99.90;;;;;;5009575;28;20041;-73
2022/03/31 11:32:34;;;;;;;2.88;2.67;;;1.40;99.90;;;;;;5007682;28;20401;-73
2022/03/31 11:35:00;;;;;;;4.07;3.22;;;1.30;99.90;;;;;;5006873;28;20037;-73
2022/03/31 11:37:26;;;;;;;3.15;2.88;;;1.20;99.90;;;;;;4991804;28;20068;-73
2022/03/31 11:39:52;;;;;;;2.95;2.75;;;1.20;99.90;;;;;;5003025;28;20096;-73
2022/03/31 11:42:18;;;;;;;4.50;3.22;;;1.20;99.90;;;;;;5008266;28;20049;-73
2022/03/31 11:44:44;;;;;;;4.55;3.33;;;1.20;99.90;;;;;;4982416;28;20081;-72
2022/03/31 11:47:22;;;;;;;5.72;5.13;;;1.20;99.90;;;;;;4996500;28;20532;-73
2022/03/31 11:49:59;;;;;;;4.18;3.78;;;1.20;99.90;;;;;;5005589;28;20234;-74
2022/03/31 11:52:33;;;;;;;4.00;3.60;;;1.20;99.90;;;;;;5005330;28;20042;-73
2022/03/31 11:55:00;;;;;;;3.83;3.10;;;1.20;99.90;;;;;;4991640;28;20492;-72
2022/03/31 11:57:27;;;;;;;4.15;3.72;;;1.10;99.90;;;;;;5004755;28;20048;-73
2022/03/31 11:59:54;;;;;;;2.60;2.40;;;1.10;99.90;;;;;;4985607;28;20116;-73
2022/03/31 12:02:20;;;;;;;3.60;3.30;;;1.00;99.90;;;;;;4988275;28;20041;-73
2022/03/31 12:04:47;;;;;;;3.20;2.90;;;1.00;99.90;;;;;;5025613;28;20063;-73
2022/03/31 12:07:14;;;;;;;4.13;3.40;;;1.10;99.90;;;;;;4994251;28;20041;-73
2022/03/31 12:09:41;;;;;;;3.13;2.83;;;1.10;99.90;;;;;;4992484;28;20037;-73
2022/03/31 12:12:14;;;;;;;5.10;3.90;;;1.00;99.90;;;;;;5025375;28;20068;-73
2022/03/31 12:14:55;;;;;;;4.00;3.17;;;0.90;99.90;;;;;;5005274;28;20041;-74
2022/03/31 12:17:21;;;;;;;4.18;3.10;;;0.90;99.90;;;;;;4992269;28;20033;-75
2022/03/31 12:19:47;;;;;;;5.50;3.80;;;0.90;99.90;;;;;;4995133;28;20572;-75
2022/03/31 12:22:14;;;;;;;4.85;2.97;;;1.00;99.90;;;;;;5025066;28;20038;-75
2022/03/31 12:24:48;;;;;;;5.25;3.63;;;1.00;99.90;;;;;;5006217;28;20061;-74
2022/03/31 12:27:16;;;;;;;4.32;3.58;;;1.00;99.90;;;;;;5009785;28;20075;-75
2022/03/31 12:29:42;;;;;;;2.80;2.55;;;1.00;99.90;;;;;;5009047;28;20440;-74
2022/03/31 12:32:10;;;;;;;7.03;3.85;;;1.00;99.90;;;;;;5004636;28;20041;-74
2022/03/31 12:35:01;;;;;;;3.10;2.80;;;1.00;99.90;;;;;;5009171;28;20084;-75
2022/03/31 12:37:34;;;;;;;3.70;2.53;;;1.00;99.90;;;;;;5006863;28;20057;-75
2022/03/31 12:40:06;;;;;;;2.95;2.67;;;1.00;99.90;;;;;;5026336;28;20041;-74
2022/03/31 12:42:31;;;;;;;5.80;4.18;;;1.00;99.90;;;;;;5004602;28;20042;-74
2022/03/31 12:44:57;;;;;;;2.05;1.95;;;1.00;99.90;;;;;;4991700;28;20055;-74
2022/03/31 12:47:25;;;;;;;4.80;3.65;;;1.00;99.90;;;;;;5009605;28;20103;-74
2022/03/31 12:49:51;;;;;;;4.03;3.60;;;1.00;99.90;;;;;;4994708;28;20132;-73
2022/03/31 12:52:22;;;;;;;5.75;3.40;;;1.00;99.90;;;;;;5008323;28;20033;-74
2022/03/31 12:54:50;;;;;;;5.07;4.18;;;1.00;99.90;;;;;;5006954;28;20474;-74
2022/03/31 12:57:21;;;;;;;3.50;3.03;;;1.00;99.90;;;;;;4983305;28;20496;-73
2022/03/31 13:00:12;;;;;;;4.25;3.60;;;1.00;99.90;;;;;;4995522;28;20533;-74
2022/03/31 13:02:38;;;;;;;4.47;4.00;;;1.10;99.90;;;;;;4981426;28;20068;-73
2022/03/31 13:05:05;;;;;;;4.22;3.70;;;1.00;99.90;;;;;;4982795;28;20037;-74
2022/03/31 13:07:31;;;;;;;2.95;2.40;;;1.00;99.90;;;;;;5006740;28;20052;-74
2022/03/31 13:09:59;;;;;;;4.85;3.45;;;1.00;99.90;;;;;;4994699;28;20042;-74
2022/03/31 13:12:28;;;;;;;1.65;1.55;;;1.00;99.90;;;;;;5006955;28;20050;-76
2022/03/31 13:14:54;;;;;;;3.42;3.13;;;1.00;99.90;;;;;;4991649;28;20034;-74
2022/03/31 13:17:20;;;;;;;6.25;5.00;;;1.00;99.90;;;;;;4996055;28;20046;-74
2022/03/31 13:19:48;;;;;;;8.25;5.30;;;1.00;99.90;;;;;;4986042;28;20132;-74